aviador You're here:

KBLU Decoded Metar

EMIGRANT GAP in CA, USA
Report Time2017-11-19 18:52:00
UTC Time2017-11-19 19:42:49
Flight Rules vfr VFR
Wind170° at 06 kt
W.Decomp.*RWY 15: 6.0 kt HW 0.4 kt RCW
W.Rank170° ranks 1
Current wind is below 170° avg. (8.8)
Visibility9999 m
Phenomena:N/A
Clouds:N/A
Expected CloudBase > 6,800 ft AGL from Temp-Dew spread
CeilingNone
Temp10°C (ISA +5)
Dew Point-7°C (30% RH)
AAT5.1°C
QNH1022 hPa
Density Alt5,679 ft
Elevation5,279 ft
Report Wrong Elevation
Raw Report
KBLU 191852Z AUTO 17006KT 10SM CLR 10/M07 A3019 RMK AO2 SLP190
T01001072 TSNO=

Extra information for KBLU:More info

Metar Taf Metar & Taf Last 4 Metars F.Rules Stats Wind Profile Meteogram Temp Stats Airport Information Weather charts Add Link Nearby VenuesMetar ALERT Operation Metar Decoded Social comments

AIRNAV info for KBLU